sensor_id;sensor_type;location;lat;lon;timestamp;P1;durP1;ratioP1;P2;durP2;ratioP2
18695;SDS011;22617;43.690;27.956;2023-01-15T00:00:24;12.87;;;4.30;;
18695;SDS011;22617;43.690;27.956;2023-01-15T00:05:27;11.20;;;4.43;;
18695;SDS011;22617;43.690;27.956;2023-01-15T00:10:31;11.77;;;4.43;;
18695;SDS011;22617;43.690;27.956;2023-01-15T00:15:36;9.17;;;4.37;;
18695;SDS011;22617;43.690;27.956;2023-01-15T00:20:40;15.23;;;5.60;;
18695;SDS011;22617;43.690;27.956;2023-01-15T00:25:43;12.70;;;5.13;;
18695;SDS011;22617;43.690;27.956;2023-01-15T00:31:05;15.37;;;5.10;;
18695;SDS011;22617;43.690;27.956;2023-01-15T00:36:10;17.93;;;5.23;;
18695;SDS011;22617;43.690;27.956;2023-01-15T00:41:14;13.73;;;5.10;;
18695;SDS011;22617;43.690;27.956;2023-01-15T00:46:19;13.37;;;4.93;;
18695;SDS011;22617;43.690;27.956;2023-01-15T00:51:23;11.87;;;4.60;;
18695;SDS011;22617;43.690;27.956;2023-01-15T00:56:26;9.10;;;4.30;;
18695;SDS011;22617;43.690;27.956;2023-01-15T01:01:31;9.80;;;4.10;;
18695;SDS011;22617;43.690;27.956;2023-01-15T01:06:35;11.77;;;5.20;;
18695;SDS011;22617;43.690;27.956;2023-01-15T01:11:38;12.43;;;5.00;;
18695;SDS011;22617;43.690;27.956;2023-01-15T01:16:45;12.53;;;5.20;;
18695;SDS011;22617;43.690;27.956;2023-01-15T01:21:49;11.13;;;5.03;;
18695;SDS011;22617;43.690;27.956;2023-01-15T01:26:53;15.03;;;5.60;;
18695;SDS011;22617;43.690;27.956;2023-01-15T01:32:00;12.97;;;5.73;;
18695;SDS011;22617;43.690;27.956;2023-01-15T01:37:04;15.03;;;6.20;;
18695;SDS011;22617;43.690;27.956;2023-01-15T01:42:09;15.63;;;6.13;;
18695;SDS011;22617;43.690;27.956;2023-01-15T01:47:16;14.40;;;6.50;;
18695;SDS011;22617;43.690;27.956;2023-01-15T01:52:24;14.27;;;5.83;;
18695;SDS011;22617;43.690;27.956;2023-01-15T01:57:31;18.63;;;7.07;;
18695;SDS011;22617;43.690;27.956;2023-01-15T02:02:36;15.77;;;6.57;;
18695;SDS011;22617;43.690;27.956;2023-01-15T02:07:40;14.60;;;6.50;;
18695;SDS011;22617;43.690;27.956;2023-01-15T02:12:45;15.53;;;6.67;;
18695;SDS011;22617;43.690;27.956;2023-01-15T02:17:58;14.30;;;6.53;;
18695;SDS011;22617;43.690;27.956;2023-01-15T02:28:37;12.97;;;6.47;;
18695;SDS011;22617;43.690;27.956;2023-01-15T02:33:43;15.87;;;7.50;;
18695;SDS011;22617;43.690;27.956;2023-01-15T02:38:51;15.73;;;6.77;;
18695;SDS011;22617;43.690;27.956;2023-01-15T02:44:02;14.27;;;6.00;;
18695;SDS011;22617;43.690;27.956;2023-01-15T02:49:11;14.67;;;6.70;;
18695;SDS011;22617;43.690;27.956;2023-01-15T02:54:19;14.53;;;6.83;;
18695;SDS011;22617;43.690;27.956;2023-01-15T02:59:28;15.93;;;7.87;;
18695;SDS011;22617;43.690;27.956;2023-01-15T03:04:37;18.40;;;8.07;;
18695;SDS011;22617;43.690;27.956;2023-01-15T03:09:45;15.23;;;6.47;;
18695;SDS011;22617;43.690;27.956;2023-01-15T03:14:53;15.33;;;6.77;;
18695;SDS011;22617;43.690;27.956;2023-01-15T03:20:08;14.97;;;6.13;;
18695;SDS011;22617;43.690;27.956;2023-01-15T03:25:17;14.97;;;6.53;;
18695;SDS011;22617;43.690;27.956;2023-01-15T03:30:27;15.83;;;6.57;;
18695;SDS011;22617;43.690;27.956;2023-01-15T03:35:45;14.10;;;6.10;;
18695;SDS011;22617;43.690;27.956;2023-01-15T03:41:18;12.87;;;5.87;;
18695;SDS011;22617;43.690;27.956;2023-01-15T03:51:58;10.37;;;5.00;;
18695;SDS011;22617;43.690;27.956;2023-01-15T03:57:12;14.63;;;6.20;;
18695;SDS011;22617;43.690;27.956;2023-01-15T04:02:23;12.30;;;5.90;;
18695;SDS011;22617;43.690;27.956;2023-01-15T04:07:30;12.40;;;6.30;;
18695;SDS011;22617;43.690;27.956;2023-01-15T04:12:34;13.47;;;5.73;;
18695;SDS011;22617;43.690;27.956;2023-01-15T04:17:43;11.03;;;5.47;;
18695;SDS011;22617;43.690;27.956;2023-01-15T04:22:47;14.97;;;6.17;;
18695;SDS011;22617;43.690;27.956;2023-01-15T04:27:52;12.07;;;5.57;;
18695;SDS011;22617;43.690;27.956;2023-01-15T04:32:57;14.17;;;6.50;;
18695;SDS011;22617;43.690;27.956;2023-01-15T04:38:00;14.83;;;6.67;;
18695;SDS011;22617;43.690;27.956;2023-01-15T04:43:04;15.20;;;6.90;;
18695;SDS011;22617;43.690;27.956;2023-01-15T04:48:27;15.30;;;6.97;;
18695;SDS011;22617;43.690;27.956;2023-01-15T04:53:32;13.27;;;6.67;;
18695;SDS011;22617;43.690;27.956;2023-01-15T04:58:36;13.97;;;5.83;;
18695;SDS011;22617;43.690;27.956;2023-01-15T05:03:40;10.63;;;5.20;;
18695;SDS011;22617;43.690;27.956;2023-01-15T05:08:44;10.83;;;5.70;;
18695;SDS011;22617;43.690;27.956;2023-01-15T05:13:48;12.63;;;6.37;;
18695;SDS011;22617;43.690;27.956;2023-01-15T05:18:53;11.17;;;5.60;;
18695;SDS011;22617;43.690;27.956;2023-01-15T05:24:00;11.50;;;5.80;;
18695;SDS011;22617;43.690;27.956;2023-01-15T05:29:05;10.40;;;5.60;;
18695;SDS011;22617;43.690;27.956;2023-01-15T05:34:10;10.67;;;5.17;;
18695;SDS011;22617;43.690;27.956;2023-01-15T05:39:14;11.07;;;5.70;;
18695;SDS011;22617;43.690;27.956;2023-01-15T05:44:20;10.33;;;5.13;;
18695;SDS011;22617;43.690;27.956;2023-01-15T05:49:26;12.87;;;5.87;;
18695;SDS011;22617;43.690;27.956;2023-01-15T05:54:31;15.27;;;7.20;;
18695;SDS011;22617;43.690;27.956;2023-01-15T05:59:36;11.00;;;5.70;;
18695;SDS011;22617;43.690;27.956;2023-01-15T06:04:41;10.77;;;5.63;;
18695;SDS011;22617;43.690;27.956;2023-01-15T06:09:44;12.00;;;5.37;;
18695;SDS011;22617;43.690;27.956;2023-01-15T06:14:47;10.27;;;5.27;;
18695;SDS011;22617;43.690;27.956;2023-01-15T06:19:52;12.47;;;5.70;;
18695;SDS011;22617;43.690;27.956;2023-01-15T06:24:59;10.40;;;5.60;;
18695;SDS011;22617;43.690;27.956;2023-01-15T06:30:04;10.50;;;4.93;;
18695;SDS011;22617;43.690;27.956;2023-01-15T06:35:10;8.30;;;5.00;;
18695;SDS011;22617;43.690;27.956;2023-01-15T06:40:15;12.20;;;5.63;;
18695;SDS011;22617;43.690;27.956;2023-01-15T06:45:19;12.13;;;6.47;;
18695;SDS011;22617;43.690;27.956;2023-01-15T06:50:41;11.97;;;6.27;;
18695;SDS011;22617;43.690;27.956;2023-01-15T06:55:44;13.13;;;6.50;;
18695;SDS011;22617;43.690;27.956;2023-01-15T07:00:48;11.60;;;5.83;;
18695;SDS011;22617;43.690;27.956;2023-01-15T07:05:58;13.90;;;6.07;;
18695;SDS011;22617;43.690;27.956;2023-01-15T07:11:02;12.43;;;6.30;;
18695;SDS011;22617;43.690;27.956;2023-01-15T07:16:06;12.63;;;6.13;;
18695;SDS011;22617;43.690;27.956;2023-01-15T07:21:29;12.97;;;5.90;;
18695;SDS011;22617;43.690;27.956;2023-01-15T07:26:33;10.60;;;5.73;;
18695;SDS011;22617;43.690;27.956;2023-01-15T07:31:37;13.00;;;6.30;;
18695;SDS011;22617;43.690;27.956;2023-01-15T07:36:42;12.33;;;6.00;;
18695;SDS011;22617;43.690;27.956;2023-01-15T07:41:46;12.57;;;6.23;;
18695;SDS011;22617;43.690;27.956;2023-01-15T07:47:14;13.17;;;6.43;;
18695;SDS011;22617;43.690;27.956;2023-01-15T07:52:39;10.00;;;5.57;;
18695;SDS011;22617;43.690;27.956;2023-01-15T07:57:42;10.70;;;5.63;;
18695;SDS011;22617;43.690;27.956;2023-01-15T08:02:46;9.67;;;4.83;;
18695;SDS011;22617;43.690;27.956;2023-01-15T08:07:53;10.70;;;5.53;;
18695;SDS011;22617;43.690;27.956;2023-01-15T08:12:56;9.60;;;5.10;;
18695;SDS011;22617;43.690;27.956;2023-01-15T08:18:17;10.67;;;5.30;;
18695;SDS011;22617;43.690;27.956;2023-01-15T08:23:22;10.70;;;5.50;;
18695;SDS011;22617;43.690;27.956;2023-01-15T08:28:26;11.23;;;5.50;;
18695;SDS011;22617;43.690;27.956;2023-01-15T08:33:29;13.37;;;5.67;;
18695;SDS011;22617;43.690;27.956;2023-01-15T08:38:35;13.30;;;5.93;;
18695;SDS011;22617;43.690;27.956;2023-01-15T08:43:38;12.50;;;6.50;;
18695;SDS011;22617;43.690;27.956;2023-01-15T08:48:42;12.03;;;6.20;;
18695;SDS011;22617;43.690;27.956;2023-01-15T08:53:48;12.17;;;5.80;;
18695;SDS011;22617;43.690;27.956;2023-01-15T08:58:51;11.43;;;6.30;;
18695;SDS011;22617;43.690;27.956;2023-01-15T09:03:55;11.50;;;6.30;;
18695;SDS011;22617;43.690;27.956;2023-01-15T09:09:00;11.17;;;6.10;;
18695;SDS011;22617;43.690;27.956;2023-01-15T09:14:03;12.63;;;6.63;;
18695;SDS011;22617;43.690;27.956;2023-01-15T09:19:08;14.00;;;6.53;;
18695;SDS011;22617;43.690;27.956;2023-01-15T09:24:13;12.70;;;6.10;;
18695;SDS011;22617;43.690;27.956;2023-01-15T09:29:16;11.03;;;5.80;;
18695;SDS011;22617;43.690;27.956;2023-01-15T09:34:20;10.90;;;6.17;;
18695;SDS011;22617;43.690;27.956;2023-01-15T09:39:25;9.97;;;5.63;;
18695;SDS011;22617;43.690;27.956;2023-01-15T09:44:31;10.60;;;5.83;;
18695;SDS011;22617;43.690;27.956;2023-01-15T09:49:50;14.40;;;7.47;;
18695;SDS011;22617;43.690;27.956;2023-01-15T09:55:07;12.33;;;6.70;;
18695;SDS011;22617;43.690;27.956;2023-01-15T10:00:16;12.00;;;6.50;;
18695;SDS011;22617;43.690;27.956;2023-01-15T10:05:22;11.07;;;6.20;;
18695;SDS011;22617;43.690;27.956;2023-01-15T10:10:33;16.53;;;7.93;;
18695;SDS011;22617;43.690;27.956;2023-01-15T10:15:41;11.17;;;6.53;;
18695;SDS011;22617;43.690;27.956;2023-01-15T10:20:50;11.93;;;6.13;;
18695;SDS011;22617;43.690;27.956;2023-01-15T10:26:12;10.67;;;5.70;;
18695;SDS011;22617;43.690;27.956;2023-01-15T10:31:20;10.80;;;5.10;;
18695;SDS011;22617;43.690;27.956;2023-01-15T10:36:28;10.47;;;5.97;;
18695;SDS011;22617;43.690;27.956;2023-01-15T10:41:43;10.17;;;5.43;;
18695;SDS011;22617;43.690;27.956;2023-01-15T10:46:55;11.87;;;5.73;;
18695;SDS011;22617;43.690;27.956;2023-01-15T10:52:02;12.53;;;6.63;;
18695;SDS011;22617;43.690;27.956;2023-01-15T10:57:13;12.30;;;6.83;;
18695;SDS011;22617;43.690;27.956;2023-01-15T11:02:24;13.47;;;6.93;;
18695;SDS011;22617;43.690;27.956;2023-01-15T11:07:34;13.90;;;6.90;;
18695;SDS011;22617;43.690;27.956;2023-01-15T11:12:53;12.20;;;6.73;;
18695;SDS011;22617;43.690;27.956;2023-01-15T11:18:16;10.57;;;5.97;;
18695;SDS011;22617;43.690;27.956;2023-01-15T11:23:42;12.80;;;6.83;;
18695;SDS011;22617;43.690;27.956;2023-01-15T11:28:48;13.07;;;6.67;;
18695;SDS011;22617;43.690;27.956;2023-01-15T11:33:56;15.27;;;7.60;;
18695;SDS011;22617;43.690;27.956;2023-01-15T11:39:01;14.63;;;7.53;;
18695;SDS011;22617;43.690;27.956;2023-01-15T11:44:09;16.87;;;8.20;;
18695;SDS011;22617;43.690;27.956;2023-01-15T11:49:30;13.93;;;7.77;;
18695;SDS011;22617;43.690;27.956;2023-01-15T11:55:04;14.30;;;7.50;;
18695;SDS011;22617;43.690;27.956;2023-01-15T12:05:27;18.67;;;9.17;;
18695;SDS011;22617;43.690;27.956;2023-01-15T12:10:33;16.17;;;8.97;;
18695;SDS011;22617;43.690;27.956;2023-01-15T12:16:02;17.50;;;9.77;;
18695;SDS011;22617;43.690;27.956;2023-01-15T12:21:20;17.47;;;9.57;;
18695;SDS011;22617;43.690;27.956;2023-01-15T12:26:48;18.90;;;9.63;;
18695;SDS011;22617;43.690;27.956;2023-01-15T12:32:07;17.83;;;9.80;;
18695;SDS011;22617;43.690;27.956;2023-01-15T12:37:16;18.13;;;9.53;;
18695;SDS011;22617;43.690;27.956;2023-01-15T12:42:25;18.33;;;9.80;;
18695;SDS011;22617;43.690;27.956;2023-01-15T12:47:51;18.53;;;9.80;;
18695;SDS011;22617;43.690;27.956;2023-01-15T12:53:03;18.27;;;9.53;;
18695;SDS011;22617;43.690;27.956;2023-01-15T12:58:18;20.63;;;10.83;;
18695;SDS011;22617;43.690;27.956;2023-01-15T13:03:33;22.13;;;11.47;;
18695;SDS011;22617;43.690;27.956;2023-01-15T13:08:52;20.30;;;10.57;;
18695;SDS011;22617;43.690;27.956;2023-01-15T13:14:00;20.20;;;10.73;;
18695;SDS011;22617;43.690;27.956;2023-01-15T13:19:11;19.63;;;10.67;;
18695;SDS011;22617;43.690;27.956;2023-01-15T13:24:29;18.00;;;9.90;;
18695;SDS011;22617;43.690;27.956;2023-01-15T13:29:59;20.07;;;10.87;;
18695;SDS011;22617;43.690;27.956;2023-01-15T13:35:19;20.53;;;10.97;;
18695;SDS011;22617;43.690;27.956;2023-01-15T13:40:31;23.13;;;12.07;;
18695;SDS011;22617;43.690;27.956;2023-01-15T13:45:37;24.47;;;13.80;;
18695;SDS011;22617;43.690;27.956;2023-01-15T13:50:51;24.43;;;13.27;;
18695;SDS011;22617;43.690;27.956;2023-01-15T13:55:58;19.87;;;10.53;;
18695;SDS011;22617;43.690;27.956;2023-01-15T14:01:06;15.47;;;8.73;;
18695;SDS011;22617;43.690;27.956;2023-01-15T14:06:35;16.33;;;8.73;;
18695;SDS011;22617;43.690;27.956;2023-01-15T14:11:47;14.63;;;7.93;;
18695;SDS011;22617;43.690;27.956;2023-01-15T14:17:15;15.33;;;8.00;;
18695;SDS011;22617;43.690;27.956;2023-01-15T14:22:36;14.73;;;7.77;;
18695;SDS011;22617;43.690;27.956;2023-01-15T14:27:55;15.03;;;7.80;;
18695;SDS011;22617;43.690;27.956;2023-01-15T14:33:09;13.13;;;7.10;;
18695;SDS011;22617;43.690;27.956;2023-01-15T14:38:24;13.70;;;7.57;;
18695;SDS011;22617;43.690;27.956;2023-01-15T14:43:30;13.80;;;7.77;;
18695;SDS011;22617;43.690;27.956;2023-01-15T14:48:36;13.73;;;7.50;;
18695;SDS011;22617;43.690;27.956;2023-01-15T14:53:42;12.23;;;6.63;;
18695;SDS011;22617;43.690;27.956;2023-01-15T14:58:51;10.30;;;6.37;;
18695;SDS011;22617;43.690;27.956;2023-01-15T15:03:59;11.07;;;6.20;;
18695;SDS011;22617;43.690;27.956;2023-01-15T15:09:11;11.83;;;6.80;;
18695;SDS011;22617;43.690;27.956;2023-01-15T15:14:17;12.57;;;5.83;;
18695;SDS011;22617;43.690;27.956;2023-01-15T15:19:24;10.33;;;5.80;;
18695;SDS011;22617;43.690;27.956;2023-01-15T15:24:33;13.47;;;6.70;;
18695;SDS011;22617;43.690;27.956;2023-01-15T15:29:38;12.77;;;6.70;;
18695;SDS011;22617;43.690;27.956;2023-01-15T15:34:42;11.07;;;6.13;;
18695;SDS011;22617;43.690;27.956;2023-01-15T15:39:53;10.90;;;6.07;;
18695;SDS011;22617;43.690;27.956;2023-01-15T15:45:00;11.90;;;6.83;;
18695;SDS011;22617;43.690;27.956;2023-01-15T15:50:22;12.73;;;7.17;;
18695;SDS011;22617;43.690;27.956;2023-01-15T15:55:31;12.33;;;7.03;;
18695;SDS011;22617;43.690;27.956;2023-01-15T16:00:39;10.23;;;5.83;;
18695;SDS011;22617;43.690;27.956;2023-01-15T16:05:56;13.47;;;6.50;;
18695;SDS011;22617;43.690;27.956;2023-01-15T16:11:03;11.63;;;5.93;;
18695;SDS011;22617;43.690;27.956;2023-01-15T16:16:09;11.40;;;6.10;;
18695;SDS011;22617;43.690;27.956;2023-01-15T16:21:16;12.60;;;6.47;;
18695;SDS011;22617;43.690;27.956;2023-01-15T16:26:27;13.10;;;6.67;;
18695;SDS011;22617;43.690;27.956;2023-01-15T16:31:35;12.80;;;6.87;;
18695;SDS011;22617;43.690;27.956;2023-01-15T16:36:40;12.47;;;6.70;;
18695;SDS011;22617;43.690;27.956;2023-01-15T16:41:47;14.73;;;7.50;;
18695;SDS011;22617;43.690;27.956;2023-01-15T16:46:53;16.20;;;7.90;;
18695;SDS011;22617;43.690;27.956;2023-01-15T16:52:00;18.23;;;9.30;;
18695;SDS011;22617;43.690;27.956;2023-01-15T16:57:22;17.63;;;8.50;;
18695;SDS011;22617;43.690;27.956;2023-01-15T17:02:32;16.10;;;8.50;;
18695;SDS011;22617;43.690;27.956;2023-01-15T17:07:53;17.27;;;8.40;;
18695;SDS011;22617;43.690;27.956;2023-01-15T17:13:01;16.43;;;8.23;;
18695;SDS011;22617;43.690;27.956;2023-01-15T17:18:24;17.17;;;8.70;;
18695;SDS011;22617;43.690;27.956;2023-01-15T17:23:33;14.77;;;7.90;;
18695;SDS011;22617;43.690;27.956;2023-01-15T17:28:44;14.90;;;7.70;;
18695;SDS011;22617;43.690;27.956;2023-01-15T17:33:48;16.37;;;7.90;;
18695;SDS011;22617;43.690;27.956;2023-01-15T17:38:54;16.27;;;7.70;;
18695;SDS011;22617;43.690;27.956;2023-01-15T17:43:59;15.43;;;7.07;;
18695;SDS011;22617;43.690;27.956;2023-01-15T17:49:13;13.60;;;6.83;;
18695;SDS011;22617;43.690;27.956;2023-01-15T17:54:17;13.43;;;6.70;;
18695;SDS011;22617;43.690;27.956;2023-01-15T17:59:41;13.47;;;6.10;;
18695;SDS011;22617;43.690;27.956;2023-01-15T18:05:14;12.53;;;6.23;;
18695;SDS011;22617;43.690;27.956;2023-01-15T18:10:33;13.23;;;6.20;;
18695;SDS011;22617;43.690;27.956;2023-01-15T18:15:37;13.57;;;7.10;;
18695;SDS011;22617;43.690;27.956;2023-01-15T18:20:42;16.23;;;7.53;;
18695;SDS011;22617;43.690;27.956;2023-01-15T18:25:46;18.40;;;7.40;;
18695;SDS011;22617;43.690;27.956;2023-01-15T18:30:50;19.03;;;7.77;;
18695;SDS011;22617;43.690;27.956;2023-01-15T18:36:01;19.20;;;7.93;;
18695;SDS011;22617;43.690;27.956;2023-01-15T18:41:06;21.70;;;9.03;;
18695;SDS011;22617;43.690;27.956;2023-01-15T18:46:11;22.00;;;8.37;;
18695;SDS011;22617;43.690;27.956;2023-01-15T18:51:33;23.57;;;8.50;;
18695;SDS011;22617;43.690;27.956;2023-01-15T18:56:37;21.03;;;7.60;;
18695;SDS011;22617;43.690;27.956;2023-01-15T19:01:41;20.53;;;8.30;;
18695;SDS011;22617;43.690;27.956;2023-01-15T19:06:47;20.27;;;8.37;;
18695;SDS011;22617;43.690;27.956;2023-01-15T19:11:51;20.53;;;8.73;;
18695;SDS011;22617;43.690;27.956;2023-01-15T19:16:57;22.77;;;9.27;;
18695;SDS011;22617;43.690;27.956;2023-01-15T19:22:20;21.40;;;8.93;;
18695;SDS011;22617;43.690;27.956;2023-01-15T19:27:42;19.70;;;7.87;;
18695;SDS011;22617;43.690;27.956;2023-01-15T19:32:49;17.97;;;8.13;;
18695;SDS011;22617;43.690;27.956;2023-01-15T19:37:55;17.57;;;8.30;;
18695;SDS011;22617;43.690;27.956;2023-01-15T19:42:59;14.73;;;7.30;;
18695;SDS011;22617;43.690;27.956;2023-01-15T19:48:22;15.50;;;7.43;;
18695;SDS011;22617;43.690;27.956;2023-01-15T19:53:45;16.13;;;7.17;;
18695;SDS011;22617;43.690;27.956;2023-01-15T19:58:48;17.73;;;7.83;;
18695;SDS011;22617;43.690;27.956;2023-01-15T20:03:52;15.17;;;7.13;;
18695;SDS011;22617;43.690;27.956;2023-01-15T20:08:57;19.03;;;7.63;;
18695;SDS011;22617;43.690;27.956;2023-01-15T20:14:01;17.90;;;7.87;;
18695;SDS011;22617;43.690;27.956;2023-01-15T20:19:04;18.20;;;7.60;;
18695;SDS011;22617;43.690;27.956;2023-01-15T20:24:09;16.60;;;7.33;;
18695;SDS011;22617;43.690;27.956;2023-01-15T20:29:13;17.67;;;7.60;;
18695;SDS011;22617;43.690;27.956;2023-01-15T20:34:16;18.87;;;8.47;;
18695;SDS011;22617;43.690;27.956;2023-01-15T20:39:21;21.40;;;9.00;;
18695;SDS011;22617;43.690;27.956;2023-01-15T20:44:24;22.07;;;9.63;;
18695;SDS011;22617;43.690;27.956;2023-01-15T20:49:45;21.57;;;9.57;;
18695;SDS011;22617;43.690;27.956;2023-01-15T20:54:51;20.33;;;8.87;;
18695;SDS011;22617;43.690;27.956;2023-01-15T20:59:54;24.93;;;9.47;;
18695;SDS011;22617;43.690;27.956;2023-01-15T21:04:58;23.83;;;10.03;;
18695;SDS011;22617;43.690;27.956;2023-01-15T21:10:03;20.43;;;8.97;;
18695;SDS011;22617;43.690;27.956;2023-01-15T21:15:09;28.70;;;11.17;;
18695;SDS011;22617;43.690;27.956;2023-01-15T21:20:13;29.23;;;11.57;;
18695;SDS011;22617;43.690;27.956;2023-01-15T21:25:20;28.03;;;11.63;;
18695;SDS011;22617;43.690;27.956;2023-01-15T21:30:23;32.43;;;12.30;;
18695;SDS011;22617;43.690;27.956;2023-01-15T21:35:27;31.43;;;11.90;;
18695;SDS011;22617;43.690;27.956;2023-01-15T21:40:32;30.23;;;12.77;;
18695;SDS011;22617;43.690;27.956;2023-01-15T21:45:35;29.10;;;13.27;;
18695;SDS011;22617;43.690;27.956;2023-01-15T21:50:39;32.90;;;14.10;;
18695;SDS011;22617;43.690;27.956;2023-01-15T21:55:48;32.97;;;13.80;;
18695;SDS011;22617;43.690;27.956;2023-01-15T22:00:52;34.67;;;14.03;;
18695;SDS011;22617;43.690;27.956;2023-01-15T22:05:55;36.13;;;14.37;;
18695;SDS011;22617;43.690;27.956;2023-01-15T22:11:07;38.80;;;15.27;;
18695;SDS011;22617;43.690;27.956;2023-01-15T22:16:11;42.57;;;15.67;;
18695;SDS011;22617;43.690;27.956;2023-01-15T22:21:15;49.83;;;17.17;;
18695;SDS011;22617;43.690;27.956;2023-01-15T22:26:20;41.33;;;15.80;;
18695;SDS011;22617;43.690;27.956;2023-01-15T22:31:26;42.50;;;15.80;;
18695;SDS011;22617;43.690;27.956;2023-01-15T22:36:30;44.53;;;16.43;;
18695;SDS011;22617;43.690;27.956;2023-01-15T22:41:35;41.47;;;16.07;;
18695;SDS011;22617;43.690;27.956;2023-01-15T22:46:55;38.10;;;15.67;;
18695;SDS011;22617;43.690;27.956;2023-01-15T22:51:59;38.77;;;14.57;;
18695;SDS011;22617;43.690;27.956;2023-01-15T22:57:04;39.37;;;14.20;;
18695;SDS011;22617;43.690;27.956;2023-01-15T23:02:07;36.20;;;14.00;;
18695;SDS011;22617;43.690;27.956;2023-01-15T23:07:12;34.13;;;13.70;;
18695;SDS011;22617;43.690;27.956;2023-01-15T23:12:17;33.17;;;12.63;;
18695;SDS011;22617;43.690;27.956;2023-01-15T23:17:21;27.60;;;11.33;;
18695;SDS011;22617;43.690;27.956;2023-01-15T23:22:24;25.50;;;10.03;;
18695;SDS011;22617;43.690;27.956;2023-01-15T23:27:29;27.27;;;10.57;;
18695;SDS011;22617;43.690;27.956;2023-01-15T23:32:33;21.27;;;9.50;;
18695;SDS011;22617;43.690;27.956;2023-01-15T23:37:36;20.30;;;8.13;;
18695;SDS011;22617;43.690;27.956;2023-01-15T23:42:41;18.97;;;8.33;;
18695;SDS011;22617;43.690;27.956;2023-01-15T23:48:02;16.90;;;6.70;;
18695;SDS011;22617;43.690;27.956;2023-01-15T23:53:06;17.07;;;7.57;;
18695;SDS011;22617;43.690;27.956;2023-01-15T23:58:11;16.60;;;6.70;;
